sensor_id;sensor_type;location;lat;lon;timestamp;pressure;altitude;pressure_sealevel;temperature;humidity
69982;BME280;57319;56.274;43.980;2023-09-19T00:00:23;100283.34;;;8.22;86.71
69982;BME280;57319;56.274;43.980;2023-09-19T00:02:56;100285.97;;;8.30;86.48
69982;BME280;57319;56.274;43.980;2023-09-19T00:05:23;100284.25;;;8.30;86.48
69982;BME280;57319;56.274;43.980;2023-09-19T00:07:50;100287.66;;;8.28;86.40
69982;BME280;57319;56.274;43.980;2023-09-19T00:10:22;100285.97;;;8.28;86.16
69982;BME280;57319;56.274;43.980;2023-09-19T00:12:51;100279.97;;;8.29;86.00
69982;BME280;57319;56.274;43.980;2023-09-19T00:15:18;100285.09;;;8.26;86.25
69982;BME280;57319;56.274;43.980;2023-09-19T00:17:44;100278.25;;;8.27;86.03
69982;BME280;57319;56.274;43.980;2023-09-19T00:20:11;100282.53;;;8.25;86.11
69982;BME280;57319;56.274;43.980;2023-09-19T00:22:41;100280.72;;;8.10;86.75
69982;BME280;57319;56.274;43.980;2023-09-19T00:25:09;100286.69;;;8.06;87.16
69982;BME280;57319;56.274;43.980;2023-09-19T00:27:35;100276.44;;;8.04;86.76
69982;BME280;57319;56.274;43.980;2023-09-19T00:30:10;100285.78;;;8.01;86.65
69982;BME280;57319;56.274;43.980;2023-09-19T00:32:40;100282.31;;;7.89;87.44
69982;BME280;57319;56.274;43.980;2023-09-19T00:35:07;100288.31;;;7.93;86.94
69982;BME280;57319;56.274;43.980;2023-09-19T00:37:36;100295.94;;;7.84;87.51
69982;BME280;57319;56.274;43.980;2023-09-19T00:40:03;100298.50;;;7.85;87.60
69982;BME280;57319;56.274;43.980;2023-09-19T00:42:31;100292.53;;;7.86;87.34
69982;BME280;57319;56.274;43.980;2023-09-19T00:44:57;100297.66;;;7.86;87.57
69982;BME280;57319;56.274;43.980;2023-09-19T00:47:22;100296.84;;;7.89;87.54
69982;BME280;57319;56.274;43.980;2023-09-19T00:49:48;100302.81;;;7.89;87.25
69982;BME280;57319;56.274;43.980;2023-09-19T00:52:18;100301.09;;;7.87;87.29
69982;BME280;57319;56.274;43.980;2023-09-19T00:54:49;100300.25;;;7.86;87.71
69982;BME280;57319;56.274;43.980;2023-09-19T00:57:15;100291.66;;;7.84;87.93
69982;BME280;57319;56.274;43.980;2023-09-19T00:59:45;100300.13;;;7.72;88.65
69982;BME280;57319;56.274;43.980;2023-09-19T01:02:14;100308.66;;;7.71;88.54
69982;BME280;57319;56.274;43.980;2023-09-19T01:04:41;100309.50;;;7.72;88.04
69982;BME280;57319;56.274;43.980;2023-09-19T01:07:08;100311.19;;;7.67;88.51
69982;BME280;57319;56.274;43.980;2023-09-19T01:09:34;100312.84;;;7.61;88.61
69982;BME280;57319;56.274;43.980;2023-09-19T01:12:02;100313.66;;;7.54;89.50
69982;BME280;57319;56.274;43.980;2023-09-19T01:15:06;100315.31;;;7.51;89.43
69982;BME280;57319;56.274;43.980;2023-09-19T01:17:59;100311.84;;;7.44;89.36
69982;BME280;57319;56.274;43.980;2023-09-19T01:20:34;100322.91;;;7.40;89.79
69982;BME280;57319;56.274;43.980;2023-09-19T01:23:13;100318.63;;;7.37;89.85
69982;BME280;57319;56.274;43.980;2023-09-19T01:26:10;100314.28;;;7.30;90.01
69982;BME280;57319;56.274;43.980;2023-09-19T01:28:47;100319.38;;;7.25;90.39
69982;BME280;57319;56.274;43.980;2023-09-19T01:31:21;100325.31;;;7.23;90.32
69982;BME280;57319;56.274;43.980;2023-09-19T01:34:00;100325.25;;;7.20;90.34
69982;BME280;57319;56.274;43.980;2023-09-19T01:36:31;100320.13;;;7.17;90.27
69982;BME280;57319;56.274;43.980;2023-09-19T01:39:00;100320.94;;;7.14;90.40
69982;BME280;57319;56.274;43.980;2023-09-19T01:45:03;100321.69;;;7.04;90.76
69982;BME280;57319;56.274;43.980;2023-09-19T01:47:36;100323.34;;;6.99;90.51
69982;BME280;57319;56.274;43.980;2023-09-19T01:52:56;100321.56;;;6.90;90.51
69982;BME280;57319;56.274;43.980;2023-09-19T01:55:26;100319.78;;;6.86;90.45
69982;BME280;57319;56.274;43.980;2023-09-19T01:58:01;100329.13;;;6.81;90.63
69982;BME280;57319;56.274;43.980;2023-09-19T02:00:33;100328.28;;;6.80;90.44
69982;BME280;57319;56.274;43.980;2023-09-19T02:03:00;100331.66;;;6.77;90.80
69982;BME280;57319;56.274;43.980;2023-09-19T02:05:28;100334.13;;;6.73;90.98
69982;BME280;57319;56.274;43.980;2023-09-19T02:07:53;100340.97;;;6.72;90.97
69982;BME280;57319;56.274;43.980;2023-09-19T02:10:20;100344.34;;;6.73;90.81
69982;BME280;57319;56.274;43.980;2023-09-19T02:12:46;100342.66;;;6.72;90.85
69982;BME280;57319;56.274;43.980;2023-09-19T02:15:12;100352.03;;;6.71;90.82
69982;BME280;57319;56.274;43.980;2023-09-19T02:17:37;100349.41;;;6.67;90.81
69982;BME280;57319;56.274;43.980;2023-09-19T02:20:04;100346.72;;;6.57;91.93
69982;BME280;57319;56.274;43.980;2023-09-19T02:22:39;100346.78;;;6.62;91.21
69982;BME280;57319;56.274;43.980;2023-09-19T02:25:24;100353.63;;;6.65;91.10
69982;BME280;57319;56.274;43.980;2023-09-19T02:27:52;100345.09;;;6.61;90.92
69982;BME280;57319;56.274;43.980;2023-09-19T02:30:20;100347.63;;;6.59;91.35
69982;BME280;57319;56.274;43.980;2023-09-19T02:32:50;100347.50;;;6.50;92.07
69982;BME280;57319;56.274;43.980;2023-09-19T02:35:16;100344.13;;;6.54;91.66
69982;BME280;57319;56.274;43.980;2023-09-19T02:37:42;100347.53;;;6.55;91.07
69982;BME280;57319;56.274;43.980;2023-09-19T02:40:08;100358.56;;;6.51;91.12
69982;BME280;57319;56.274;43.980;2023-09-19T02:42:53;100361.13;;;6.49;91.13
69982;BME280;57319;56.274;43.980;2023-09-19T02:45:19;100364.50;;;6.48;91.05
69982;BME280;57319;56.274;43.980;2023-09-19T02:47:47;100362.84;;;6.50;90.87
69982;BME280;57319;56.274;43.980;2023-09-19T02:50:15;100369.63;;;6.50;91.12
69982;BME280;57319;56.274;43.980;2023-09-19T02:52:43;100373.91;;;6.49;91.18
69982;BME280;57319;56.274;43.980;2023-09-19T02:55:11;100375.63;;;6.50;90.82
69982;BME280;57319;56.274;43.980;2023-09-19T02:57:37;100370.47;;;6.47;90.49
69982;BME280;57319;56.274;43.980;2023-09-19T03:00:08;100373.03;;;6.47;90.35
69982;BME280;57319;56.274;43.980;2023-09-19T03:02:36;100379.81;;;6.45;90.49
69982;BME280;57319;56.274;43.980;2023-09-19T03:05:04;100380.59;;;6.39;90.23
69982;BME280;57319;56.274;43.980;2023-09-19T03:07:30;100381.41;;;6.37;90.88
69982;BME280;57319;56.274;43.980;2023-09-19T03:09:56;100375.53;;;6.44;90.70
69982;BME280;57319;56.274;43.980;2023-09-19T03:12:22;100378.97;;;6.46;90.61
69982;BME280;57319;56.274;43.980;2023-09-19T03:14:48;100379.81;;;6.47;90.18
69982;BME280;57319;56.274;43.980;2023-09-19T03:17:13;100381.69;;;6.55;90.12
69982;BME280;57319;56.274;43.980;2023-09-19T03:19:40;100384.22;;;6.55;90.06
69982;BME280;57319;56.274;43.980;2023-09-19T03:22:06;100383.44;;;6.59;89.56
69982;BME280;57319;56.274;43.980;2023-09-19T03:24:33;100386.03;;;6.62;89.92
69982;BME280;57319;56.274;43.980;2023-09-19T03:27:00;100383.50;;;6.66;89.79
69982;BME280;57319;56.274;43.980;2023-09-19T03:29:26;100388.66;;;6.70;90.25
69982;BME280;57319;56.274;43.980;2023-09-19T03:31:52;100387.00;;;6.72;89.98
69982;BME280;57319;56.274;43.980;2023-09-19T03:34:20;100383.66;;;6.78;89.71
69982;BME280;57319;56.274;43.980;2023-09-19T03:36:46;100397.38;;;6.83;89.48
69982;BME280;57319;56.274;43.980;2023-09-19T03:39:12;100388.91;;;6.87;89.17
69982;BME280;57319;56.274;43.980;2023-09-19T03:41:40;100385.50;;;6.88;89.37
69982;BME280;57319;56.274;43.980;2023-09-19T03:44:05;100385.59;;;6.96;89.07
69982;BME280;57319;56.274;43.980;2023-09-19T03:46:31;100396.75;;;7.03;88.61
69982;BME280;57319;56.274;43.980;2023-09-19T03:48:57;100391.72;;;7.09;88.33
69982;BME280;57319;56.274;43.980;2023-09-19T03:51:23;100385.84;;;7.16;87.97
69982;BME280;57319;56.274;43.980;2023-09-19T03:53:49;100387.59;;;7.20;87.67
69982;BME280;57319;56.274;43.980;2023-09-19T03:56:17;100398.78;;;7.30;87.06
69982;BME280;57319;56.274;43.980;2023-09-19T03:58:43;100398.00;;;7.39;86.53
69982;BME280;57319;56.274;43.980;2023-09-19T04:01:08;100396.47;;;7.52;84.16
69982;BME280;57319;56.274;43.980;2023-09-19T04:03:34;100406.84;;;7.67;82.90
69982;BME280;57319;56.274;43.980;2023-09-19T04:06:11;100398.44;;;7.82;81.18
69982;BME280;57319;56.274;43.980;2023-09-19T04:08:37;100401.16;;;7.99;78.96
69982;BME280;57319;56.274;43.980;2023-09-19T04:11:03;100402.97;;;8.12;78.32
69982;BME280;57319;56.274;43.980;2023-09-19T04:13:28;100399.66;;;8.24;77.04
69982;BME280;57319;56.274;43.980;2023-09-19T04:15:55;100400.56;;;8.36;75.79
69982;BME280;57319;56.274;43.980;2023-09-19T04:18:21;100402.38;;;8.46;74.71
69982;BME280;57319;56.274;43.980;2023-09-19T04:20:52;100402.44;;;8.58;73.76
69982;BME280;57319;56.274;43.980;2023-09-19T04:23:18;100403.34;;;8.66;73.96
69982;BME280;57319;56.274;43.980;2023-09-19T04:25:45;100405.97;;;8.71;73.08
69982;BME280;57319;56.274;43.980;2023-09-19T04:28:11;100403.44;;;8.82;71.92
69982;BME280;57319;56.274;43.980;2023-09-19T04:30:37;100406.91;;;8.90;71.64
69982;BME280;57319;56.274;43.980;2023-09-19T04:33:03;100410.38;;;9.00;70.47
69982;BME280;57319;56.274;43.980;2023-09-19T04:35:29;100404.41;;;9.07;69.43
69982;BME280;57319;56.274;43.980;2023-09-19T04:37:57;100401.84;;;9.13;69.47
69982;BME280;57319;56.274;43.980;2023-09-19T04:40:23;100407.84;;;9.20;68.74
69982;BME280;57319;56.274;43.980;2023-09-19T04:42:54;100403.59;;;9.28;68.18
69982;BME280;57319;56.274;43.980;2023-09-19T04:45:23;100412.19;;;9.32;67.88
69982;BME280;57319;56.274;43.980;2023-09-19T04:47:49;100409.66;;;9.40;67.07
69982;BME280;57319;56.274;43.980;2023-09-19T04:50:14;100410.50;;;9.46;66.20
69982;BME280;57319;56.274;43.980;2023-09-19T04:52:41;100412.25;;;9.54;65.74
69982;BME280;57319;56.274;43.980;2023-09-19T04:55:09;100413.13;;;9.62;66.15
69982;BME280;57319;56.274;43.980;2023-09-19T04:57:36;100413.13;;;9.68;65.09
69982;BME280;57319;56.274;43.980;2023-09-19T05:00:02;100412.25;;;9.75;63.57
69982;BME280;57319;56.274;43.980;2023-09-19T05:02:35;100402.00;;;9.80;63.67
69982;BME280;57319;56.274;43.980;2023-09-19T05:05:01;100410.56;;;9.93;63.56
69982;BME280;57319;56.274;43.980;2023-09-19T05:07:27;100417.44;;;10.01;62.20
69982;BME280;57319;56.274;43.980;2023-09-19T05:09:53;100419.16;;;10.07;62.41
69982;BME280;57319;56.274;43.980;2023-09-19T05:12:18;100417.41;;;10.12;61.20
69982;BME280;57319;56.274;43.980;2023-09-19T05:14:45;100414.00;;;10.16;61.39
69982;BME280;57319;56.274;43.980;2023-09-19T05:17:10;100413.16;;;10.25;60.77
69982;BME280;57319;56.274;43.980;2023-09-19T05:19:36;100415.75;;;10.34;60.47
69982;BME280;57319;56.274;43.980;2023-09-19T05:22:04;100420.03;;;10.42;59.23
69982;BME280;57319;56.274;43.980;2023-09-19T05:24:30;100422.56;;;10.48;58.39
69982;BME280;57319;56.274;43.980;2023-09-19T05:26:56;100420.88;;;10.50;58.40
69982;BME280;57319;56.274;43.980;2023-09-19T05:29:22;100418.28;;;10.53;58.00
69982;BME280;57319;56.274;43.980;2023-09-19T05:31:48;100425.13;;;10.57;58.19
69982;BME280;57319;56.274;43.980;2023-09-19T05:34:15;100426.84;;;10.58;57.67
69982;BME280;57319;56.274;43.980;2023-09-19T05:36:41;100428.56;;;10.61;57.80
69982;BME280;57319;56.274;43.980;2023-09-19T05:39:07;100427.69;;;10.62;58.11
69982;BME280;57319;56.274;43.980;2023-09-19T05:41:35;100429.41;;;10.69;58.43
69982;BME280;57319;56.274;43.980;2023-09-19T05:44:05;100422.53;;;10.77;57.99
69982;BME280;57319;56.274;43.980;2023-09-19T05:46:32;100425.06;;;10.90;58.11
69982;BME280;57319;56.274;43.980;2023-09-19T05:48:58;100425.00;;;11.03;57.74
69982;BME280;57319;56.274;43.980;2023-09-19T05:51:24;100429.25;;;11.15;56.92
69982;BME280;57319;56.274;43.980;2023-09-19T05:53:50;100419.78;;;11.25;57.27
69982;BME280;57319;56.274;43.980;2023-09-19T05:56:17;100423.97;;;11.38;56.90
69982;BME280;57319;56.274;43.980;2023-09-19T05:58:44;100415.38;;;11.43;55.50
69982;BME280;57319;56.274;43.980;2023-09-19T06:01:10;100418.81;;;11.42;54.49
69982;BME280;57319;56.274;43.980;2023-09-19T06:03:36;100412.81;;;11.38;54.83
69982;BME280;57319;56.274;43.980;2023-09-19T06:06:02;100411.09;;;11.37;55.11
69982;BME280;57319;56.274;43.980;2023-09-19T06:08:28;100423.13;;;11.38;55.10
69982;BME280;57319;56.274;43.980;2023-09-19T06:10:54;100415.38;;;11.40;55.05
69982;BME280;57319;56.274;43.980;2023-09-19T06:13:19;100417.09;;;11.42;55.17
69982;BME280;57319;56.274;43.980;2023-09-19T06:15:46;100416.19;;;11.49;54.73
69982;BME280;57319;56.274;43.980;2023-09-19T06:18:15;100421.31;;;11.52;54.76
69982;BME280;57319;56.274;43.980;2023-09-19T06:20:48;100423.84;;;11.62;53.96
69982;BME280;57319;56.274;43.980;2023-09-19T06:23:16;100420.41;;;11.64;53.98
69982;BME280;57319;56.274;43.980;2023-09-19T06:25:43;100425.50;;;11.72;54.38
69982;BME280;57319;56.274;43.980;2023-09-19T06:28:09;100427.16;;;11.82;54.46
69982;BME280;57319;56.274;43.980;2023-09-19T06:30:38;100421.94;;;11.92;54.46
69982;BME280;57319;56.274;43.980;2023-09-19T06:33:07;100416.75;;;11.93;53.96
69982;BME280;57319;56.274;43.980;2023-09-19T06:35:33;100420.22;;;11.91;54.37
69982;BME280;57319;56.274;43.980;2023-09-19T06:38:03;100418.50;;;11.89;54.77
69982;BME280;57319;56.274;43.980;2023-09-19T06:40:30;100415.13;;;11.83;54.68
69982;BME280;57319;56.274;43.980;2023-09-19T06:42:56;100419.44;;;11.79;54.67
69982;BME280;57319;56.274;43.980;2023-09-19T06:45:23;100417.69;;;11.81;54.92
69982;BME280;57319;56.274;43.980;2023-09-19T06:47:52;100421.09;;;11.86;55.30
69982;BME280;57319;56.274;43.980;2023-09-19T06:50:20;100413.31;;;11.99;54.79
69982;BME280;57319;56.274;43.980;2023-09-19T06:52:49;100420.16;;;12.01;54.21
69982;BME280;57319;56.274;43.980;2023-09-19T06:55:18;100414.06;;;12.12;54.23
69982;BME280;57319;56.274;43.980;2023-09-19T06:57:48;100416.56;;;12.21;53.77
69982;BME280;57319;56.274;43.980;2023-09-19T07:00:15;100423.34;;;12.31;53.60
69982;BME280;57319;56.274;43.980;2023-09-19T07:02:44;100419.78;;;12.43;53.73
69982;BME280;57319;56.274;43.980;2023-09-19T07:05:10;100414.53;;;12.54;53.44
69982;BME280;57319;56.274;43.980;2023-09-19T07:07:36;100421.25;;;12.69;52.94
69982;BME280;57319;56.274;43.980;2023-09-19T07:10:03;100420.22;;;12.84;52.90
69982;BME280;57319;56.274;43.980;2023-09-19T07:12:35;100420.00;;;13.05;52.30
69982;BME280;57319;56.274;43.980;2023-09-19T07:15:02;100414.06;;;12.96;50.75
69982;BME280;57319;56.274;43.980;2023-09-19T07:17:30;100412.25;;;13.04;50.98
69982;BME280;57319;56.274;43.980;2023-09-19T07:19:56;100411.03;;;13.30;51.14
69982;BME280;57319;56.274;43.980;2023-09-19T07:22:23;100423.66;;;13.54;50.61
69982;BME280;57319;56.274;43.980;2023-09-19T07:24:48;100415.78;;;13.64;49.66
69982;BME280;57319;56.274;43.980;2023-09-19T07:27:14;100406.84;;;13.83;49.65
69982;BME280;57319;56.274;43.980;2023-09-19T07:29:40;100411.72;;;14.03;48.81
69982;BME280;57319;56.274;43.980;2023-09-19T07:32:05;100405.50;;;14.15;48.60
69982;BME280;57319;56.274;43.980;2023-09-19T07:34:32;100409.03;;;14.10;47.93
69982;BME280;57319;56.274;43.980;2023-09-19T07:36:57;100412.06;;;13.82;48.57
69982;BME280;57319;56.274;43.980;2023-09-19T07:39:23;100411.47;;;13.63;48.66
69982;BME280;57319;56.274;43.980;2023-09-19T07:41:49;100414.63;;;13.21;49.41
69982;BME280;57319;56.274;43.980;2023-09-19T07:44:15;100420.31;;;12.76;49.78
69982;BME280;57319;56.274;43.980;2023-09-19T07:46:40;100416.97;;;12.66;50.56
69982;BME280;57319;56.274;43.980;2023-09-19T07:49:06;100418.81;;;12.55;50.84
69982;BME280;57319;56.274;43.980;2023-09-19T07:51:32;100412.06;;;12.45;51.31
69982;BME280;57319;56.274;43.980;2023-09-19T07:53:58;100412.97;;;12.36;51.59
69982;BME280;57319;56.274;43.980;2023-09-19T07:56:24;100410.50;;;12.25;52.05
69982;BME280;57319;56.274;43.980;2023-09-19T07:58:51;100415.66;;;12.25;52.15
69982;BME280;57319;56.274;43.980;2023-09-19T08:01:17;100416.38;;;12.41;51.24
69982;BME280;57319;56.274;43.980;2023-09-19T08:03:43;100412.91;;;12.44;50.79
69982;BME280;57319;56.274;43.980;2023-09-19T08:06:09;100412.06;;;12.45;50.83
69982;BME280;57319;56.274;43.980;2023-09-19T08:08:35;100416.34;;;12.44;51.54
69982;BME280;57319;56.274;43.980;2023-09-19T08:11:05;100414.44;;;12.62;51.53
69982;BME280;57319;56.274;43.980;2023-09-19T08:13:46;100403.88;;;12.85;51.56
69982;BME280;57319;56.274;43.980;2023-09-19T08:16:15;100407.13;;;13.02;50.75
69982;BME280;57319;56.274;43.980;2023-09-19T08:18:41;100400.13;;;13.07;50.88
69982;BME280;57319;56.274;43.980;2023-09-19T08:21:07;100403.47;;;13.19;50.38
69982;BME280;57319;56.274;43.980;2023-09-19T08:23:37;100395.53;;;13.30;49.94
69982;BME280;57319;56.274;43.980;2023-09-19T08:26:05;100399.81;;;13.37;49.45
69982;BME280;57319;56.274;43.980;2023-09-19T08:28:34;100387.72;;;13.37;49.14
69982;BME280;57319;56.274;43.980;2023-09-19T08:31:04;100398.09;;;13.33;49.10
69982;BME280;57319;56.274;43.980;2023-09-19T08:33:37;100385.97;;;13.38;48.73
69982;BME280;57319;56.274;43.980;2023-09-19T08:36:04;100389.47;;;13.35;49.03
69982;BME280;57319;56.274;43.980;2023-09-19T08:38:34;100392.88;;;13.37;48.12
69982;BME280;57319;56.274;43.980;2023-09-19T08:41:04;100393.88;;;13.24;48.30
69982;BME280;57319;56.274;43.980;2023-09-19T08:43:30;100391.31;;;13.22;48.90
69982;BME280;57319;56.274;43.980;2023-09-19T08:46:10;100390.31;;;13.34;48.97
69982;BME280;57319;56.274;43.980;2023-09-19T08:48:45;100399.09;;;13.22;49.20
69982;BME280;57319;56.274;43.980;2023-09-19T08:51:43;100396.50;;;13.22;48.23
69982;BME280;57319;56.274;43.980;2023-09-19T08:54:33;100398.28;;;13.17;49.13
69982;BME280;57319;56.274;43.980;2023-09-19T08:57:06;100392.91;;;13.34;48.97
69982;BME280;57319;56.274;43.980;2023-09-19T08:59:38;100392.00;;;13.40;48.67
69982;BME280;57319;56.274;43.980;2023-09-19T09:02:12;100394.72;;;13.28;48.65
69982;BME280;57319;56.274;43.980;2023-09-19T09:04:41;100386.81;;;13.40;48.86
69982;BME280;57319;56.274;43.980;2023-09-19T09:07:12;100387.50;;;13.51;49.11
69982;BME280;57319;56.274;43.980;2023-09-19T09:09:39;100384.91;;;13.53;49.61
69982;BME280;57319;56.274;43.980;2023-09-19T09:12:14;100381.38;;;13.60;48.40
69982;BME280;57319;56.274;43.980;2023-09-19T09:14:45;100388.16;;;13.67;48.60
69982;BME280;57319;56.274;43.980;2023-09-19T09:17:11;100377.72;;;13.72;47.46
69982;BME280;57319;56.274;43.980;2023-09-19T09:19:37;100376.84;;;13.73;47.66
69982;BME280;57319;56.274;43.980;2023-09-19T09:22:11;100380.31;;;13.72;47.71
69982;BME280;57319;56.274;43.980;2023-09-19T09:24:37;100376.00;;;13.72;47.69
69982;BME280;57319;56.274;43.980;2023-09-19T09:27:16;100375.13;;;13.72;47.96
69982;BME280;57319;56.274;43.980;2023-09-19T09:29:48;100380.34;;;13.69;46.96
69982;BME280;57319;56.274;43.980;2023-09-19T09:32:18;100381.09;;;13.77;47.80
69982;BME280;57319;56.274;43.980;2023-09-19T09:34:47;100373.97;;;13.90;46.75
69982;BME280;57319;56.274;43.980;2023-09-19T09:37:15;100379.09;;;13.95;47.46
69982;BME280;57319;56.274;43.980;2023-09-19T09:39:49;100375.63;;;13.94;47.11
69982;BME280;57319;56.274;43.980;2023-09-19T09:42:34;100366.00;;;14.02;47.07
69982;BME280;57319;56.274;43.980;2023-09-19T09:47:44;100373.78;;;14.02;46.89
69982;BME280;57319;56.274;43.980;2023-09-19T09:50:27;100371.22;;;14.01;46.58
69982;BME280;57319;56.274;43.980;2023-09-19T09:56:04;100363.59;;;13.91;46.75
69982;BME280;57319;56.274;43.980;2023-09-19T09:58:52;100361.31;;;13.73;46.98
69982;BME280;57319;56.274;43.980;2023-09-19T10:01:21;100365.59;;;13.76;47.92
69982;BME280;57319;56.274;43.980;2023-09-19T10:03:57;100366.09;;;13.98;47.64
69982;BME280;57319;56.274;43.980;2023-09-19T10:06:23;100357.25;;;14.11;47.55
69982;BME280;57319;56.274;43.980;2023-09-19T10:09:06;100357.94;;;14.21;47.64
69982;BME280;57319;56.274;43.980;2023-09-19T10:11:47;100348.22;;;14.32;47.86
69982;BME280;57319;56.274;43.980;2023-09-19T10:14:25;100356.63;;;14.43;47.09
69982;BME280;57319;56.274;43.980;2023-09-19T10:16:56;100346.22;;;14.48;47.08
69982;BME280;57319;56.274;43.980;2023-09-19T10:19:45;100350.50;;;14.48;46.78
69982;BME280;57319;56.274;43.980;2023-09-19T10:22:13;100352.13;;;14.53;46.81
69982;BME280;57319;56.274;43.980;2023-09-19T10:24:47;100341.75;;;14.53;46.54
69982;BME280;57319;56.274;43.980;2023-09-19T10:27:17;100347.84;;;14.52;46.72
69982;BME280;57319;56.274;43.980;2023-09-19T10:29:45;100345.94;;;14.64;46.72
69982;BME280;57319;56.274;43.980;2023-09-19T10:32:15;100338.81;;;14.73;46.67
69982;BME280;57319;56.274;43.980;2023-09-19T10:34:49;100335.28;;;14.78;45.52
69982;BME280;57319;56.274;43.980;2023-09-19T10:37:16;100342.69;;;14.95;45.98
69982;BME280;57319;56.274;43.980;2023-09-19T10:39:46;100339.97;;;15.01;45.97
69982;BME280;57319;56.274;43.980;2023-09-19T10:42:18;100334.53;;;15.13;46.08
69982;BME280;57319;56.274;43.980;2023-09-19T10:44:47;100337.72;;;15.24;45.72
69982;BME280;57319;56.274;43.980;2023-09-19T10:47:19;100342.16;;;15.19;45.45
69982;BME280;57319;56.274;43.980;2023-09-19T10:49:46;100334.44;;;15.16;44.70
69982;BME280;57319;56.274;43.980;2023-09-19T10:52:18;100327.69;;;15.09;45.08
69982;BME280;57319;56.274;43.980;2023-09-19T10:54:48;100332.13;;;15.04;45.48
69982;BME280;57319;56.274;43.980;2023-09-19T10:57:22;100326.09;;;15.03;45.01
69982;BME280;57319;56.274;43.980;2023-09-19T11:05:40;100328.06;;;15.31;43.79
69982;BME280;57319;56.274;43.980;2023-09-19T11:08:08;100319.91;;;15.47;43.07
69982;BME280;57319;56.274;43.980;2023-09-19T11:10:50;100320.00;;;15.43;43.01
69982;BME280;57319;56.274;43.980;2023-09-19T11:13:30;100319.81;;;15.51;43.39
69982;BME280;57319;56.274;43.980;2023-09-19T11:16:04;100315.47;;;15.52;43.54
69982;BME280;57319;56.274;43.980;2023-09-19T11:18:51;100310.50;;;15.42;43.69
69982;BME280;57319;56.274;43.980;2023-09-19T11:26:50;100306.28;;;15.38;43.75
69982;BME280;57319;56.274;43.980;2023-09-19T11:29:32;100301.88;;;15.42;44.07
69982;BME280;57319;56.274;43.980;2023-09-19T11:31:59;100294.13;;;15.40;43.76
69982;BME280;57319;56.274;43.980;2023-09-19T11:39:38;100288.06;;;15.76;42.69
69982;BME280;57319;56.274;43.980;2023-09-19T11:45:07;100273.16;;;15.86;42.66
69982;BME280;57319;56.274;43.980;2023-09-19T11:47:33;100278.16;;;16.55;41.72
69982;BME280;57319;56.274;43.980;2023-09-19T11:50:01;100268.28;;;18.03;38.53
69982;BME280;57319;56.274;43.980;2023-09-19T11:52:31;100269.09;;;18.53;38.05
69982;BME280;57319;56.274;43.980;2023-09-19T11:55:00;100257.03;;;18.26;38.10
69982;BME280;57319;56.274;43.980;2023-09-19T11:57:30;100266.78;;;18.21;38.17
69982;BME280;57319;56.274;43.980;2023-09-19T11:59:57;100269.41;;;17.69;38.96
69982;BME280;57319;56.274;43.980;2023-09-19T12:02:46;100262.06;;;17.82;38.98
69982;BME280;57319;56.274;43.980;2023-09-19T12:05:12;100263.72;;;17.83;39.15
69982;BME280;57319;56.274;43.980;2023-09-19T12:07:44;100256.31;;;18.46;37.86
69982;BME280;57319;56.274;43.980;2023-09-19T12:10:13;100256.81;;;18.56;38.76
69982;BME280;57319;56.274;43.980;2023-09-19T12:12:47;100261.25;;;19.43;35.88
69982;BME280;57319;56.274;43.980;2023-09-19T12:15:25;100261.78;;;20.13;35.43
69982;BME280;57319;56.274;43.980;2023-09-19T12:18:00;100256.31;;;20.95;33.90
69982;BME280;57319;56.274;43.980;2023-09-19T12:20:42;100256.59;;;20.70;34.01
69982;BME280;57319;56.274;43.980;2023-09-19T12:23:13;100260.41;;;20.04;34.91
69982;BME280;57319;56.274;43.980;2023-09-19T12:25:43;100258.75;;;19.82;35.53
69982;BME280;57319;56.274;43.980;2023-09-19T12:28:12;100250.09;;;19.60;36.14
69982;BME280;57319;56.274;43.980;2023-09-19T12:30:37;100252.31;;;19.48;35.65
69982;BME280;57319;56.274;43.980;2023-09-19T12:33:30;100243.84;;;20.05;34.45
69982;BME280;57319;56.274;43.980;2023-09-19T12:35:57;100248.00;;;19.47;35.95
69982;BME280;57319;56.274;43.980;2023-09-19T12:38:28;100245.69;;;18.97;36.81
69982;BME280;57319;56.274;43.980;2023-09-19T12:40:56;100239.28;;;18.82;37.34
69982;BME280;57319;56.274;43.980;2023-09-19T12:43:26;100237.75;;;18.54;37.79
69982;BME280;57319;56.274;43.980;2023-09-19T12:45:52;100232.06;;;18.21;38.40
69982;BME280;57319;56.274;43.980;2023-09-19T12:53:26;100226.81;;;17.72;39.56
69982;BME280;57319;56.274;43.980;2023-09-19T12:56:00;100230.13;;;17.52;40.29
69982;BME280;57319;56.274;43.980;2023-09-19T12:58:26;100230.66;;;17.61;40.15
69982;BME280;57319;56.274;43.980;2023-09-19T13:00:52;100220.53;;;17.77;39.44
69982;BME280;57319;56.274;43.980;2023-09-19T13:03:26;100220.59;;;17.51;40.24
69982;BME280;57319;56.274;43.980;2023-09-19T13:06:00;100220.66;;;17.49;39.86
69982;BME280;57319;56.274;43.980;2023-09-19T13:08:31;100220.63;;;16.67;41.55
69982;BME280;57319;56.274;43.980;2023-09-19T13:13:33;100218.22;;;18.19;39.48
69982;BME280;57319;56.274;43.980;2023-09-19T13:16:01;100229.88;;;19.44;37.17
69982;BME280;57319;56.274;43.980;2023-09-19T13:18:28;100224.25;;;21.79;34.04
69982;BME280;57319;56.274;43.980;2023-09-19T13:21:12;100220.50;;;23.29;31.73
69982;BME280;57319;56.274;43.980;2023-09-19T13:23:42;100220.78;;;23.08;31.91
69982;BME280;57319;56.274;43.980;2023-09-19T13:26:10;100216.13;;;22.33;31.71
69982;BME280;57319;56.274;43.980;2023-09-19T13:28:37;100214.09;;;21.38;33.31
69982;BME280;57319;56.274;43.980;2023-09-19T13:31:04;100211.03;;;20.57;35.26
69982;BME280;57319;56.274;43.980;2023-09-19T13:33:30;100210.16;;;19.99;35.57